createdAt,value
2017-11-29T00:02:18.921Z,97973
2017-11-29T00:04:47.007Z,97976
2017-11-29T00:07:15.074Z,97985
2017-11-29T00:09:43.918Z,97974
2017-11-29T00:12:12.761Z,97973
2017-11-29T00:14:41.604Z,97974
2017-11-29T00:17:09.737Z,97976
2017-11-29T00:19:38.573Z,97980
2017-11-29T00:22:06.649Z,97980
2017-11-29T00:24:34.722Z,97983
2017-11-29T00:27:02.829Z,97983
2017-11-29T00:29:31.661Z,97980
2017-11-29T00:31:59.754Z,97986
2017-11-29T00:34:27.849Z,97990
2017-11-29T00:36:55.898Z,97998
2017-11-29T00:39:23.977Z,97991
2017-11-29T00:41:52.057Z,97990
2017-11-29T00:44:20.142Z,98000
2017-11-29T00:46:48.205Z,97997
2017-11-29T00:49:16.286Z,97989
2017-11-29T00:51:44.368Z,97990
2017-11-29T00:54:13.207Z,97988
2017-11-29T00:56:41.273Z,97989
2017-11-29T00:59:09.352Z,97988
2017-11-29T01:01:38.190Z,97989
2017-11-29T01:04:07.037Z,97982
2017-11-29T01:06:35.106Z,97988
2017-11-29T01:09:03.971Z,97986
2017-11-29T01:11:32.040Z,97986
2017-11-29T01:14:00.130Z,97981
2017-11-29T01:16:28.187Z,97986
2017-11-29T01:18:56.282Z,97986
2017-11-29T01:21:24.361Z,97983
2017-11-29T01:23:52.461Z,97984
2017-11-29T01:26:20.546Z,97982
2017-11-29T01:28:48.627Z,97978
2017-11-29T01:31:17.476Z,97978
2017-11-29T01:33:45.553Z,97983
2017-11-29T01:36:13.637Z,97979
2017-11-29T01:38:41.722Z,97972
2017-11-29T01:41:09.828Z,97965
2017-11-29T01:43:38.662Z,97969
2017-11-29T01:46:06.747Z,97976
2017-11-29T01:48:34.821Z,97971
2017-11-29T01:51:02.905Z,97972
2017-11-29T01:53:30.979Z,97971
2017-11-29T01:55:59.818Z,97963
2017-11-29T01:58:27.898Z,97960
2017-11-29T02:00:55.961Z,97965
2017-11-29T02:03:24.813Z,97969
2017-11-29T02:05:53.692Z,97967
2017-11-29T02:08:21.744Z,97973
2017-11-29T02:10:49.811Z,97961
2017-11-29T02:13:17.913Z,97965
2017-11-29T02:15:45.990Z,97951
2017-11-29T02:18:14.861Z,97957
2017-11-29T02:20:42.940Z,97955
2017-11-29T02:23:11.806Z,97956
2017-11-29T02:25:39.885Z,97947
2017-11-29T02:28:07.954Z,97954
2017-11-29T02:30:36.042Z,97962
2017-11-29T02:33:04.104Z,97956
2017-11-29T02:35:32.185Z,97948
2017-11-29T02:38:00.258Z,97944
2017-11-29T02:40:46.160Z,97944
2017-11-29T02:43:14.224Z,97939
2017-11-29T02:45:42.297Z,97942
2017-11-29T02:48:10.402Z,97940
2017-11-29T02:50:38.484Z,97937
2017-11-29T02:53:06.557Z,97952
2017-11-29T02:55:35.476Z,97951
2017-11-29T02:58:03.541Z,97950
2017-11-29T03:00:31.628Z,97953
2017-11-29T03:02:59.703Z,97946
2017-11-29T03:05:27.781Z,97934
2017-11-29T03:07:55.861Z,97937
2017-11-29T03:10:23.941Z,97946
2017-11-29T03:12:52.010Z,97942
2017-11-29T03:15:20.096Z,97944
2017-11-29T03:17:48.939Z,97935
2017-11-29T03:20:17.022Z,97950
2017-11-29T03:22:45.099Z,97948
2017-11-29T03:25:13.175Z,97944
2017-11-29T03:27:41.255Z,97947
2017-11-29T03:30:09.335Z,97942
2017-11-29T03:32:37.407Z,97943
2017-11-29T03:35:05.476Z,97945
2017-11-29T03:37:33.555Z,97945
2017-11-29T03:40:01.636Z,97944
2017-11-29T03:42:30.520Z,97943
2017-11-29T03:44:58.598Z,97939
2017-11-29T03:47:27.438Z,97934
2017-11-29T03:49:55.526Z,97936
2017-11-29T03:52:23.602Z,97938
2017-11-29T03:54:51.681Z,97926
2017-11-29T03:57:19.753Z,97929
2017-11-29T03:59:47.829Z,97937
2017-11-29T04:02:15.913Z,97934
2017-11-29T04:04:43.981Z,97937
2017-11-29T04:07:12.056Z,97929
2017-11-29T04:09:40.129Z,97933
2017-11-29T04:12:08.213Z,97928
2017-11-29T04:14:37.059Z,97939
2017-11-29T04:17:05.138Z,97939
2017-11-29T04:19:33.210Z,97931
2017-11-29T04:22:01.296Z,97939
2017-11-29T04:24:29.595Z,97925
2017-11-29T04:26:58.490Z,97929
2017-11-29T04:29:27.354Z,97940
2017-11-29T04:31:55.438Z,97933
2017-11-29T04:34:23.683Z,97941
2017-11-29T04:36:51.792Z,97937
2017-11-29T04:39:20.678Z,97937
2017-11-29T04:41:48.758Z,97937
2017-11-29T04:44:16.833Z,97933
2017-11-29T04:46:45.677Z,97946
2017-11-29T04:49:14.517Z,97952
2017-11-29T04:51:43.360Z,97959
2017-11-29T04:54:11.445Z,97956
2017-11-29T04:56:39.509Z,97971
2017-11-29T04:59:07.588Z,97960
2017-11-29T05:01:35.653Z,97969
2017-11-29T05:04:03.780Z,97964
2017-11-29T05:06:32.620Z,97967
2017-11-29T05:09:00.699Z,97958
2017-11-29T05:11:28.778Z,97963
2017-11-29T05:13:56.856Z,97957
2017-11-29T05:16:24.932Z,97952
2017-11-29T05:18:53.009Z,97946
2017-11-29T05:21:21.084Z,97961
2017-11-29T05:23:49.152Z,97959
2017-11-29T05:26:17.224Z,97961
2017-11-29T05:28:45.293Z,97957
2017-11-29T05:31:13.365Z,97952
2017-11-29T05:33:41.439Z,97958
2017-11-29T05:36:09.521Z,97957
2017-11-29T05:38:38.353Z,97949
2017-11-29T05:41:07.203Z,97944
2017-11-29T05:43:36.031Z,97948
2017-11-29T05:46:04.125Z,97952
2017-11-29T05:48:32.189Z,97942
2017-11-29T05:51:00.269Z,97948
2017-11-29T05:53:28.352Z,97971
2017-11-29T05:55:56.438Z,97962
2017-11-29T05:58:24.504Z,97966
2017-11-29T06:00:52.589Z,97962
2017-11-29T06:03:20.662Z,97978
2017-11-29T06:05:48.740Z,97972
2017-11-29T06:08:17.580Z,97980
2017-11-29T06:10:46.429Z,97982
2017-11-29T06:13:15.260Z,97986
2017-11-29T06:15:44.284Z,97980
2017-11-29T06:18:12.353Z,97976
2017-11-29T06:20:40.453Z,97977
2017-11-29T06:23:09.300Z,97974
2017-11-29T06:25:37.374Z,97970
2017-11-29T06:28:05.458Z,97980
2017-11-29T06:30:33.534Z,97976
2017-11-29T06:33:01.604Z,97970
2017-11-29T06:35:29.666Z,97961
2017-11-29T06:37:57.754Z,97964
2017-11-29T06:40:25.824Z,97966
2017-11-29T06:42:53.896Z,97967
2017-11-29T06:45:21.957Z,97974
2017-11-29T06:47:50.050Z,97966
2017-11-29T06:50:18.905Z,97966
2017-11-29T06:52:47.028Z,97977
2017-11-29T06:55:15.868Z,97975
2017-11-29T06:57:43.928Z,97972
2017-11-29T07:00:12.018Z,97986
2017-11-29T07:02:40.085Z,97983
2017-11-29T07:05:08.933Z,97983
2017-11-29T07:07:37.773Z,97991
2017-11-29T07:10:05.846Z,97995
2017-11-29T07:12:33.922Z,97996
2017-11-29T07:15:02.005Z,97997
2017-11-29T07:17:30.101Z,97994
2017-11-29T07:19:58.946Z,97995
2017-11-29T07:22:27.009Z,97995
2017-11-29T07:24:55.127Z,97996
2017-11-29T07:27:23.189Z,97996
2017-11-29T07:29:51.265Z,98009
2017-11-29T07:32:19.334Z,97991
2017-11-29T07:34:47.400Z,97996
2017-11-29T07:37:15.473Z,97998
2017-11-29T07:39:43.568Z,98000
2017-11-29T07:42:11.621Z,97998
2017-11-29T07:44:39.695Z,98008
2017-11-29T07:47:07.777Z,97998
2017-11-29T07:49:35.833Z,97998
2017-11-29T07:52:03.909Z,97996
2017-11-29T07:54:31.976Z,97984
2017-11-29T07:57:00.062Z,97994
2017-11-29T07:59:28.126Z,98006
2017-11-29T08:01:56.200Z,97999
2017-11-29T08:04:24.277Z,98002
2017-11-29T08:06:52.341Z,97997
2017-11-29T08:09:20.430Z,98004
2017-11-29T08:11:49.272Z,98005
2017-11-29T08:14:17.340Z,98008
2017-11-29T08:16:45.406Z,98006
2017-11-29T08:19:13.482Z,98004
2017-11-29T08:21:41.549Z,97998
2017-11-29T08:24:09.625Z,98009
2017-11-29T08:26:37.702Z,98009
2017-11-29T08:29:05.769Z,98011
2017-11-29T08:31:33.854Z,98003
2017-11-29T08:34:01.918Z,98008
2017-11-29T08:36:29.980Z,98018
2017-11-29T08:38:58.072Z,98007
2017-11-29T08:41:26.150Z,98005
2017-11-29T08:43:54.228Z,98001
2017-11-29T08:46:22.293Z,98000
2017-11-29T08:48:50.363Z,98002
2017-11-29T08:51:18.444Z,97991
2017-11-29T08:53:46.509Z,98011
2017-11-29T08:56:14.585Z,98015
2017-11-29T08:58:42.668Z,98002
2017-11-29T09:01:10.724Z,98012
2017-11-29T09:03:38.796Z,98013
2017-11-29T09:06:06.872Z,98008
2017-11-29T09:08:34.942Z,98012
2017-11-29T09:11:03.017Z,98004
2017-11-29T09:13:31.093Z,98005
2017-11-29T09:15:59.170Z,98010
2017-11-29T09:18:27.235Z,97999
2017-11-29T09:20:55.304Z,97999
2017-11-29T09:23:23.381Z,97992
2017-11-29T09:25:51.482Z,97995
2017-11-29T09:28:19.533Z,97986
2017-11-29T09:30:47.611Z,97977
2017-11-29T09:33:15.685Z,97990
2017-11-29T09:35:43.763Z,97986
2017-11-29T09:38:11.832Z,97982
2017-11-29T09:40:39.900Z,97982
2017-11-29T09:43:07.980Z,97978
2017-11-29T09:45:36.041Z,97979
2017-11-29T09:48:04.328Z,97974
2017-11-29T09:50:32.389Z,97972
2017-11-29T09:53:00.462Z,97962
2017-11-29T09:55:28.533Z,97965
2017-11-29T09:57:56.601Z,97968
2017-11-29T10:00:24.678Z,97971
2017-11-29T10:02:52.753Z,97954
2017-11-29T10:05:20.821Z,97967
2017-11-29T10:07:48.905Z,97970
2017-11-29T10:10:16.976Z,97957
2017-11-29T10:12:45.053Z,97955
2017-11-29T10:15:13.900Z,97945
2017-11-29T10:17:41.985Z,97959
2017-11-29T10:20:10.044Z,97957
2017-11-29T10:22:38.129Z,97951
2017-11-29T10:25:06.196Z,97945
2017-11-29T10:27:34.347Z,97943
2017-11-29T10:30:02.421Z,97941
2017-11-29T10:32:30.497Z,97928
2017-11-29T10:34:58.568Z,97938
2017-11-29T10:37:26.638Z,97933
2017-11-29T10:39:54.714Z,97932
2017-11-29T10:42:23.541Z,97932
2017-11-29T10:44:51.626Z,97931
2017-11-29T10:47:19.686Z,97932
2017-11-29T10:49:47.759Z,97931
2017-11-29T10:52:15.825Z,97926
2017-11-29T10:54:43.905Z,97938
2017-11-29T10:57:11.988Z,97944
2017-11-29T10:59:40.079Z,97945
2017-11-29T11:02:08.921Z,97938
2017-11-29T11:04:36.981Z,97934
2017-11-29T11:07:05.058Z,97938
2017-11-29T11:09:33.125Z,97937
2017-11-29T11:12:01.209Z,97943
2017-11-29T11:14:29.282Z,97932
2017-11-29T11:16:57.381Z,97927
2017-11-29T11:19:25.435Z,97920
2017-11-29T11:21:53.514Z,97919
2017-11-29T11:24:21.584Z,97924
2017-11-29T11:26:49.663Z,97919
2017-11-29T11:29:17.728Z,97915
2017-11-29T11:31:45.797Z,97913
2017-11-29T11:34:13.861Z,97911
2017-11-29T11:36:41.963Z,97923
2017-11-29T11:39:10.038Z,97911
2017-11-29T11:41:38.870Z,97900
2017-11-29T11:44:06.947Z,97905
2017-11-29T11:46:35.018Z,97905
2017-11-29T11:49:03.852Z,97898
2017-11-29T11:51:31.942Z,97890
2017-11-29T11:54:00.790Z,97893
2017-11-29T11:56:28.861Z,97885
2017-11-29T11:58:56.949Z,97893
2017-11-29T12:01:25.025Z,97880
2017-11-29T12:03:53.108Z,97879
2017-11-29T12:06:21.168Z,97883
2017-11-29T12:08:49.249Z,97879
2017-11-29T12:11:17.312Z,97868
2017-11-29T12:13:45.395Z,97866
2017-11-29T12:16:13.463Z,97865
2017-11-29T12:18:41.552Z,97859
2017-11-29T12:21:10.401Z,97860
2017-11-29T12:23:38.459Z,97871
2017-11-29T12:26:06.541Z,97873
2017-11-29T12:28:34.613Z,97862
2017-11-29T12:31:02.708Z,97856
2017-11-29T12:33:30.777Z,97859
2017-11-29T12:35:58.859Z,97860
2017-11-29T12:38:26.936Z,97855
2017-11-29T12:40:55.017Z,97856
2017-11-29T12:43:23.076Z,97847
2017-11-29T12:45:51.149Z,97852
2017-11-29T12:48:37.148Z,97847
2017-11-29T12:51:23.541Z,97846
2017-11-29T12:53:51.605Z,97835
2017-11-29T12:56:19.689Z,97837
2017-11-29T12:58:47.757Z,97845
2017-11-29T13:01:15.820Z,97836
2017-11-29T13:03:43.894Z,97840
2017-11-29T13:06:11.968Z,97841
2017-11-29T13:08:40.037Z,97846
2017-11-29T13:11:08.104Z,97841
2017-11-29T13:13:36.177Z,97844
2017-11-29T13:16:04.266Z,97839
2017-11-29T13:18:32.336Z,97852
2017-11-29T13:21:00.413Z,97851
2017-11-29T13:23:28.484Z,97847
2017-11-29T13:25:56.549Z,97849
2017-11-29T13:28:24.624Z,97853
2017-11-29T13:30:52.679Z,97853
2017-11-29T13:33:20.763Z,97845
2017-11-29T13:35:48.832Z,97852
2017-11-29T13:38:16.902Z,97852
2017-11-29T13:40:44.968Z,97848
2017-11-29T13:43:13.062Z,97853
2017-11-29T13:45:41.134Z,97848
2017-11-29T13:48:09.213Z,97851
2017-11-29T13:50:38.051Z,97860
2017-11-29T13:53:06.884Z,97855
2017-11-29T13:55:35.628Z,97846
2017-11-29T13:58:03.711Z,97858
2017-11-29T14:00:31.790Z,97864
2017-11-29T14:02:59.853Z,97864
2017-11-29T14:05:27.934Z,97868
2017-11-29T14:07:56.001Z,97862
2017-11-29T14:10:24.078Z,97871
2017-11-29T14:12:52.149Z,97870
2017-11-29T14:15:20.217Z,97872
2017-11-29T14:17:48.322Z,97869
2017-11-29T14:20:16.391Z,97860
2017-11-29T14:22:44.449Z,97864
2017-11-29T14:25:12.521Z,97861
2017-11-29T14:27:40.604Z,97867
2017-11-29T14:30:08.672Z,97860
2017-11-29T14:32:36.753Z,97861
2017-11-29T14:35:04.816Z,97867
2017-11-29T14:37:32.886Z,97863
2017-11-29T14:40:00.953Z,97863
2017-11-29T14:42:29.025Z,97867
2017-11-29T14:44:57.122Z,97864
2017-11-29T14:47:25.965Z,97871
2017-11-29T14:49:54.032Z,97865
2017-11-29T14:52:22.916Z,97867
2017-11-29T14:54:50.984Z,97873
2017-11-29T14:57:19.050Z,97876
2017-11-29T14:59:47.133Z,97866
2017-11-29T15:02:15.210Z,97866
2017-11-29T15:04:43.293Z,97859
2017-11-29T15:07:11.361Z,97858
2017-11-29T15:09:40.193Z,97865
2017-11-29T15:12:08.261Z,97854
2017-11-29T15:14:36.330Z,97858
2017-11-29T15:17:04.406Z,97860
2017-11-29T15:19:33.296Z,97866
2017-11-29T15:22:02.155Z,97869
2017-11-29T15:24:30.228Z,97874
2017-11-29T15:26:58.301Z,97886
2017-11-29T15:29:26.389Z,97888
2017-11-29T15:31:54.460Z,97877
2017-11-29T15:34:22.538Z,97881
2017-11-29T15:36:50.605Z,97887
2017-11-29T15:39:18.721Z,97887
2017-11-29T15:41:46.753Z,97887
2017-11-29T15:44:14.827Z,97882
2017-11-29T15:46:42.892Z,97890
2017-11-29T15:49:10.965Z,97878
2017-11-29T15:51:39.037Z,97884
2017-11-29T15:54:07.140Z,97879
2017-11-29T15:56:35.985Z,97884
2017-11-29T15:59:04.060Z,97877
2017-11-29T16:01:32.132Z,97875
2017-11-29T16:04:00.201Z,97874
2017-11-29T16:06:28.267Z,97879
2017-11-29T16:08:56.350Z,97875
2017-11-29T16:11:24.418Z,97879
2017-11-29T16:13:52.496Z,97880
2017-11-29T16:16:20.575Z,97875
2017-11-29T16:18:48.653Z,97895
2017-11-29T16:21:16.725Z,97876
2017-11-29T16:23:44.805Z,97892
2017-11-29T16:26:12.881Z,97892
2017-11-29T16:28:40.953Z,97886
2017-11-29T16:31:09.019Z,97894
2017-11-29T16:33:37.174Z,97891
2017-11-29T16:36:05.245Z,97894
2017-11-29T16:38:33.747Z,97892
2017-11-29T16:41:01.841Z,97895
2017-11-29T16:43:30.684Z,97884
2017-11-29T16:45:58.762Z,97897
2017-11-29T16:48:26.845Z,97897
2017-11-29T16:50:54.933Z,97897
2017-11-29T16:53:23.007Z,97896
2017-11-29T16:55:51.076Z,97894
2017-11-29T16:58:19.144Z,97894
2017-11-29T17:00:47.209Z,97896
2017-11-29T17:03:15.316Z,97900
2017-11-29T17:05:44.151Z,97904
2017-11-29T17:08:12.225Z,97902
2017-11-29T17:10:40.292Z,97907
2017-11-29T17:13:08.365Z,97904
2017-11-29T17:15:36.445Z,97906
2017-11-29T17:18:04.517Z,97913
2017-11-29T17:20:32.590Z,97915
2017-11-29T17:23:00.665Z,97908
2017-11-29T17:25:28.744Z,97903
2017-11-29T17:27:57.599Z,97913
2017-11-29T17:30:29.464Z,97912
2017-11-29T17:32:57.533Z,97918
2017-11-29T17:35:26.377Z,97922
2017-11-29T17:37:54.438Z,97921
2017-11-29T17:40:22.505Z,97932
2017-11-29T17:42:50.598Z,97930
2017-11-29T17:45:19.451Z,97925
2017-11-29T17:47:47.542Z,97926
2017-11-29T17:50:15.644Z,97928
2017-11-29T17:52:44.486Z,97932
2017-11-29T17:55:12.553Z,97937
2017-11-29T17:57:40.633Z,97931
2017-11-29T18:00:08.689Z,97942
2017-11-29T18:02:37.555Z,97937
2017-11-29T18:05:06.356Z,97940
2017-11-29T18:07:34.438Z,97939
2017-11-29T18:10:03.288Z,97932
2017-11-29T18:12:32.138Z,97935
2017-11-29T18:15:00.222Z,97950
2017-11-29T18:17:28.309Z,97940
2017-11-29T18:19:56.369Z,97947
2017-11-29T18:22:24.449Z,97936
2017-11-29T18:24:52.521Z,97938
2017-11-29T18:27:20.604Z,97927
2017-11-29T18:29:49.436Z,97934
2017-11-29T18:32:18.276Z,97937
2017-11-29T18:34:46.348Z,97935
2017-11-29T18:37:14.414Z,97936
2017-11-29T18:39:42.490Z,97935
2017-11-29T18:42:10.566Z,97931
2017-11-29T18:44:38.650Z,97932
2017-11-29T18:47:07.477Z,97930
2017-11-29T18:49:36.317Z,97938
2017-11-29T18:52:04.389Z,97939
2017-11-29T18:54:32.466Z,97931
2017-11-29T18:57:01.305Z,97936
2017-11-29T18:59:29.368Z,97938
2017-11-29T19:01:58.197Z,97945
2017-11-29T19:04:26.289Z,97951
2017-11-29T19:06:54.352Z,97958
2017-11-29T19:09:22.430Z,97956
2017-11-29T19:11:51.289Z,97959
2017-11-29T19:14:19.357Z,97948
2017-11-29T19:16:47.431Z,97959
2017-11-29T19:19:15.506Z,97963
2017-11-29T19:21:43.598Z,97965
2017-11-29T19:24:11.657Z,97961
2017-11-29T19:26:39.736Z,97962
2017-11-29T19:29:07.801Z,97957
2017-11-29T19:31:35.882Z,97963
2017-11-29T19:34:03.955Z,97960
2017-11-29T19:36:32.040Z,97970
2017-11-29T19:39:00.114Z,97954
2017-11-29T19:41:28.189Z,97969
2017-11-29T19:43:56.252Z,97968
2017-11-29T19:46:24.329Z,97968
2017-11-29T19:48:52.401Z,97968
2017-11-29T19:51:20.468Z,97973
2017-11-29T19:53:48.537Z,97971
2017-11-29T19:56:16.621Z,97976
2017-11-29T19:58:45.674Z,97966
2017-11-29T20:01:13.785Z,97968
2017-11-29T20:03:41.840Z,97974
2017-11-29T20:06:09.920Z,97969
2017-11-29T20:08:37.996Z,97978
2017-11-29T20:11:06.072Z,97977
2017-11-29T20:13:34.135Z,97974
2017-11-29T20:16:02.205Z,97966
2017-11-29T20:18:30.288Z,97974
2017-11-29T20:20:58.360Z,97966
2017-11-29T20:23:26.426Z,97973
2017-11-29T20:25:54.504Z,97967
2017-11-29T20:28:22.653Z,97977
2017-11-29T20:30:50.721Z,97974
2017-11-29T20:33:18.791Z,97967
2017-11-29T20:35:46.864Z,97965
2017-11-29T20:38:14.941Z,97964
2017-11-29T20:40:43.034Z,97970
2017-11-29T20:43:11.101Z,97955
2017-11-29T20:45:39.169Z,97976
2017-11-29T20:48:07.241Z,97975
2017-11-29T20:50:35.308Z,97977
2017-11-29T20:53:03.385Z,97970
2017-11-29T20:55:31.460Z,97971
2017-11-29T20:57:59.531Z,97976
2017-11-29T21:00:27.601Z,97967
2017-11-29T21:02:55.681Z,97972
2017-11-29T21:05:23.749Z,97959
2017-11-29T21:07:51.826Z,97967
2017-11-29T21:10:19.891Z,97972
2017-11-29T21:12:47.969Z,97971
2017-11-29T21:15:16.037Z,97977
2017-11-29T21:17:44.128Z,97981
2017-11-29T21:20:12.193Z,97974
2017-11-29T21:22:40.248Z,97970
2017-11-29T21:25:08.324Z,97972
2017-11-29T21:27:36.384Z,97963
2017-11-29T21:30:04.458Z,97965
2017-11-29T21:32:32.559Z,97975
2017-11-29T21:35:00.596Z,97963
2017-11-29T21:37:28.672Z,97963
2017-11-29T21:39:56.740Z,97957
2017-11-29T21:42:24.803Z,97954
2017-11-29T21:44:52.908Z,97945
2017-11-29T21:47:20.972Z,97954
2017-11-29T21:49:49.067Z,97943
2017-11-29T21:52:17.128Z,97957
2017-11-29T21:54:45.193Z,97955
2017-11-29T21:57:13.268Z,97953
2017-11-29T21:59:41.342Z,97959
2017-11-29T22:02:09.428Z,97957
2017-11-29T22:04:38.265Z,97960
2017-11-29T22:07:06.345Z,97958
2017-11-29T22:09:34.418Z,97961
2017-11-29T22:12:02.501Z,97970
2017-11-29T22:14:30.570Z,97966
2017-11-29T22:16:58.644Z,97972
2017-11-29T22:19:26.714Z,97972
2017-11-29T22:21:54.803Z,97967
2017-11-29T22:24:22.874Z,97961
2017-11-29T22:26:50.967Z,97965
2017-11-29T22:29:19.804Z,97958
2017-11-29T22:31:48.646Z,97964
2017-11-29T22:34:16.743Z,97943
2017-11-29T22:36:44.833Z,97956
2017-11-29T22:39:12.922Z,97955
2017-11-29T22:41:41.001Z,97958
2017-11-29T22:44:09.080Z,97955
2017-11-29T22:46:37.173Z,97951
2017-11-29T22:49:05.238Z,97952
2017-11-29T22:51:33.328Z,97958
2017-11-29T22:54:02.170Z,97952
2017-11-29T22:56:30.256Z,97956
2017-11-29T22:58:58.324Z,97950
2017-11-29T23:01:26.401Z,97957
2017-11-29T23:03:54.469Z,97948
2017-11-29T23:06:22.541Z,97952
2017-11-29T23:08:50.637Z,97950
2017-11-29T23:11:18.705Z,97952
2017-11-29T23:13:46.767Z,97944
2017-11-29T23:16:14.857Z,97945
2017-11-29T23:18:42.928Z,97942
2017-11-29T23:21:10.992Z,97940
2017-11-29T23:23:39.073Z,97943
2017-11-29T23:26:07.135Z,97927
2017-11-29T23:28:35.219Z,97928
2017-11-29T23:31:03.282Z,97928
2017-11-29T23:33:31.359Z,97925
2017-11-29T23:35:59.423Z,97917
2017-11-29T23:38:27.505Z,97930
2017-11-29T23:40:55.564Z,97932
2017-11-29T23:43:23.641Z,97924
2017-11-29T23:45:51.720Z,97910
2017-11-29T23:48:19.792Z,97917
2017-11-29T23:50:47.857Z,97916
2017-11-29T23:53:15.928Z,97914
2017-11-29T23:55:43.996Z,97911
2017-11-29T23:58:12.101Z,97907
